createdAt,value
2022-08-20T00:00:31.434Z,98244.53
2022-08-20T00:05:39.377Z,98240.75
2022-08-20T00:10:49.046Z,98238.88
2022-08-20T00:16:01.164Z,98230.69
2022-08-20T00:21:08.569Z,98245.59
2022-08-20T00:26:13.885Z,98245.59
2022-08-20T00:31:23.084Z,98239.72
2022-08-20T00:36:32.268Z,98237.19
2022-08-20T00:41:46.293Z,98245.78
2022-08-20T00:46:55.412Z,98240.34
2022-08-20T00:52:04.744Z,98248.09
2022-08-20T00:57:13.773Z,98250.41
2022-08-20T01:02:25.476Z,98244.56
2022-08-20T01:07:34.898Z,98252.31
2022-08-20T01:12:42.184Z,98253.56
2022-08-20T01:17:58.619Z,98248.97
2022-08-20T01:23:21.750Z,98254.81
2022-08-20T01:28:34.356Z,98255.88
2022-08-20T01:33:39.726Z,98258.59
2022-08-20T01:38:50.215Z,98259.63
2022-08-20T01:44:02.334Z,98261.75
2022-08-20T01:49:12.397Z,98260.91
2022-08-20T01:54:18.703Z,98264.03
2022-08-20T01:59:26.132Z,98258.81
2022-08-20T02:04:31.344Z,98273.03
2022-08-20T02:09:39.307Z,98276.59
2022-08-20T02:14:51.322Z,98285.38
2022-08-20T02:19:59.834Z,98281.19
2022-08-20T02:25:04.718Z,98290.78
2022-08-20T02:30:21.234Z,98293.09
2022-08-20T02:35:33.880Z,98297.91
2022-08-20T02:40:39.149Z,98301.66
2022-08-20T02:45:46.474Z,98305.22
2022-08-20T02:50:54.366Z,98298.94
2022-08-20T02:55:59.441Z,98295.78
2022-08-20T03:01:12.294Z,98292.88
2022-08-20T03:06:17.796Z,98288.25
2022-08-20T03:11:22.433Z,98298.75
2022-08-20T03:16:30.462Z,98300.44
2022-08-20T03:21:37.342Z,98295.63
2022-08-20T03:26:42.046Z,98304.41
2022-08-20T03:31:49.741Z,98302.31
2022-08-20T03:36:54.342Z,98293.97
2022-08-20T03:41:59.130Z,98295.66
2022-08-20T03:47:09.404Z,98296.47
2022-08-20T03:52:14.446Z,98287.25
2022-08-20T03:57:19.432Z,98290.22
2022-08-20T04:02:28.381Z,98294.78
2022-08-20T04:07:32.953Z,98287.66
2022-08-20T04:12:41.991Z,98287.25
2022-08-20T04:17:58.919Z,98288.94
2022-08-20T04:23:03.690Z,98286.22
2022-08-20T04:28:11.454Z,98289.75
2022-08-20T04:33:34.159Z,98293.13
2022-08-20T04:38:50.449Z,98295.84
2022-08-20T04:43:58.230Z,98304.63
2022-08-20T04:49:05.696Z,98312.81
2022-08-20T04:54:10.265Z,98314.47
2022-08-20T04:59:15.173Z,98317.84
2022-08-20T05:04:22.577Z,98323.94
2022-08-20T05:09:27.097Z,98324.97
2022-08-20T05:14:31.592Z,98327.06
2022-08-20T05:19:40.532Z,98337.53
2022-08-20T05:24:45.322Z,98336.47
2022-08-20T05:29:50.324Z,98334.59
2022-08-20T05:35:00.622Z,98344.22
2022-08-20T05:40:10.516Z,98350.53
2022-08-20T05:45:17.193Z,98343.00
2022-08-20T05:50:24.430Z,98342.53
2022-08-20T05:55:29.166Z,98344.66
2022-08-20T06:00:35.447Z,98342.78
2022-08-20T06:05:43.021Z,98338.63
2022-08-20T06:10:48.139Z,98340.25
2022-08-20T06:15:55.993Z,98333.78
2022-08-20T06:21:03.130Z,98347.41
2022-08-20T06:26:09.356Z,98345.53
2022-08-20T06:31:14.156Z,98353.91
2022-08-20T06:36:21.670Z,98356.84
2022-08-20T06:41:35.699Z,98363.78
2022-08-20T06:46:41.326Z,98370.50
2022-08-20T06:51:50.046Z,98369.03
2022-08-20T06:56:57.146Z,98379.53
2022-08-20T07:02:01.822Z,98368.81
2022-08-20T07:07:08.990Z,98361.69
2022-08-20T07:12:13.582Z,98369.69
2022-08-20T07:17:18.132Z,98368.84
2022-08-20T07:22:25.369Z,98372.19
2022-08-20T07:27:30.157Z,98374.06
2022-08-20T07:32:39.378Z,98373.63
2022-08-20T07:37:50.153Z,98366.47
2022-08-20T07:42:55.368Z,98374.22
2022-08-20T07:48:10.242Z,98371.03
2022-08-20T07:53:18.031Z,98376.28
2022-08-20T07:58:27.646Z,98369.13
2022-08-20T08:03:40.932Z,98368.88
2022-08-20T08:08:57.559Z,98368.63
2022-08-20T08:14:02.814Z,98367.97
2022-08-20T08:19:12.240Z,98377.16
2022-08-20T08:24:24.300Z,98384.06
2022-08-20T08:29:31.331Z,98377.91
2022-08-20T08:34:39.316Z,98377.41
2022-08-20T08:39:46.474Z,98364.31
2022-08-20T08:44:51.150Z,98363.59
2022-08-20T08:49:56.960Z,98373.81
2022-08-20T08:55:06.890Z,98372.75
2022-08-20T09:00:16.542Z,98371.25
2022-08-20T09:05:24.440Z,98377.31
2022-08-20T09:10:31.758Z,98372.41
2022-08-20T09:15:36.833Z,98350.38
2022-08-20T09:20:41.435Z,98351.38
2022-08-20T09:25:48.714Z,98357.44
2022-08-20T09:30:53.349Z,98361.63
2022-08-20T09:35:57.864Z,98368.25
2022-08-20T09:41:05.182Z,98367.13
2022-08-20T09:46:09.789Z,98357.75
2022-08-20T09:51:14.506Z,98361.84
2022-08-20T09:56:21.816Z,98353.19
2022-08-20T10:01:26.479Z,98351.97
2022-08-20T10:06:35.792Z,98344.34
2022-08-20T10:11:44.944Z,98335.00
2022-08-20T10:16:49.577Z,98333.19
2022-08-20T10:21:55.326Z,98342.09
2022-08-20T10:27:03.855Z,98334.69
2022-08-20T10:32:14.770Z,98343.88
2022-08-20T10:37:21.646Z,98345.69
2022-08-20T10:42:28.767Z,98343.72
2022-08-20T10:47:35.480Z,98347.88
2022-08-20T10:52:40.429Z,98345.41
2022-08-20T10:57:48.020Z,98342.72
2022-08-20T11:02:52.565Z,98335.03
2022-08-20T11:07:57.937Z,98341.97
2022-08-20T11:13:06.159Z,98333.88
2022-08-20T11:18:13.119Z,98333.03
2022-08-20T11:23:17.686Z,98327.22
2022-08-20T11:28:31.810Z,98335.56
2022-08-20T11:33:36.712Z,98339.13
2022-08-20T11:38:41.606Z,98339.59
2022-08-20T11:44:10.377Z,98346.66
2022-08-20T11:49:13.553Z,98340.81
2022-08-20T11:54:18.173Z,98335.69
2022-08-20T11:59:25.510Z,98337.34
2022-08-20T12:04:30.186Z,98339.34
2022-08-20T12:09:40.097Z,98322.88
2022-08-20T12:14:58.608Z,98310.75
2022-08-20T12:20:05.540Z,98313.50
2022-08-20T12:25:11.627Z,98300.78
2022-08-20T12:30:21.175Z,98299.31
2022-08-20T12:35:25.893Z,98298.81
2022-08-20T12:40:36.878Z,98296.06
2022-08-20T12:45:44.102Z,98301.75
2022-08-20T12:50:50.291Z,98295.00
2022-08-20T12:55:55.094Z,98302.44
2022-08-20T13:01:02.473Z,98308.63
2022-08-20T13:06:08.578Z,98298.41
2022-08-20T13:11:13.932Z,98306.50
2022-08-20T13:16:22.363Z,98307.06
2022-08-20T13:21:29.981Z,98311.53
2022-08-20T13:26:35.910Z,98313.97
2022-08-20T13:31:45.272Z,98316.41
2022-08-20T13:36:49.962Z,98311.38
2022-08-20T13:41:54.909Z,98308.31
2022-08-20T13:47:02.378Z,98301.56
2022-08-20T13:52:07.290Z,98304.63
2022-08-20T13:57:19.123Z,98305.22
2022-08-20T14:02:27.209Z,98304.53
2022-08-20T14:07:33.425Z,98309.13
2022-08-20T14:12:38.177Z,98299.41
2022-08-20T14:17:52.242Z,98312.78
2022-08-20T14:22:57.250Z,98313.88
2022-08-20T14:28:11.409Z,98304.38
2022-08-20T14:33:19.160Z,98303.53
2022-08-20T14:38:24.275Z,98295.88
2022-08-20T14:43:29.232Z,98303.72
2022-08-20T14:48:36.545Z,98296.69
2022-08-20T14:53:41.323Z,98296.13
2022-08-20T14:58:45.960Z,98290.72
2022-08-20T15:03:53.748Z,98291.38
2022-08-20T15:08:59.482Z,98292.06
2022-08-20T15:14:04.681Z,98288.13
2022-08-20T15:19:11.983Z,98287.19
2022-08-20T15:24:20.592Z,98285.72
2022-08-20T15:29:25.508Z,98283.09
2022-08-20T15:34:32.820Z,98279.84
2022-08-20T15:39:37.638Z,98270.78
2022-08-20T15:44:43.300Z,98292.34
2022-08-20T15:49:51.987Z,98283.06
2022-08-20T15:54:56.745Z,98287.75
2022-08-20T16:00:13.094Z,98294.59
2022-08-20T16:05:26.024Z,98304.34
2022-08-20T16:10:35.697Z,98313.91
2022-08-20T16:15:49.402Z,98311.56
2022-08-20T16:21:03.092Z,98313.31
2022-08-20T16:26:19.145Z,98318.22
2022-08-20T16:31:27.134Z,98320.72
2022-08-20T16:36:40.178Z,98319.91
2022-08-20T16:41:47.888Z,98320.72
2022-08-20T16:46:57.887Z,98328.34
2022-08-20T16:52:23.768Z,98316.84
2022-08-20T16:57:29.941Z,98329.41
2022-08-20T17:02:34.701Z,98329.22
2022-08-20T17:07:50.689Z,98331.78
2022-08-20T17:13:00.031Z,98351.25
2022-08-20T17:18:22.364Z,98337.06
2022-08-20T17:23:29.936Z,98338.16
2022-08-20T17:28:35.567Z,98348.44
2022-08-20T17:33:42.551Z,98352.59
2022-08-20T17:38:54.441Z,98351.31
2022-08-20T17:44:01.103Z,98353.44
2022-08-20T17:49:11.053Z,98352.13
2022-08-20T17:54:51.446Z,98355.00
2022-08-20T18:00:09.315Z,98351.19
2022-08-20T18:05:24.206Z,98358.25
2022-08-20T18:10:38.322Z,98358.69
2022-08-20T18:15:51.307Z,98357.03
2022-08-20T18:21:23.666Z,98364.06
2022-08-20T18:26:34.964Z,98366.56
2022-08-20T18:31:48.891Z,98370.38
2022-08-20T18:36:58.107Z,98377.75
2022-08-20T18:42:09.252Z,98369.25
2022-08-20T18:47:23.644Z,98377.22
2022-08-20T18:52:30.673Z,98388.25
2022-08-20T18:57:42.816Z,98386.06
2022-08-20T19:02:58.195Z,98386.28
2022-08-20T19:08:06.485Z,98397.81
2022-08-20T19:13:29.873Z,98406.97
2022-08-20T19:18:43.457Z,98398.66
2022-08-20T19:23:52.159Z,98399.00
2022-08-20T19:29:03.564Z,98394.03
2022-08-20T19:34:22.031Z,98406.13
2022-08-20T19:39:29.847Z,98408.09
2022-08-20T19:44:45.545Z,98417.81
2022-08-20T19:50:00.592Z,98425.25
2022-08-20T19:55:05.299Z,98425.28
2022-08-20T20:00:14.931Z,98411.69
2022-08-20T20:05:20.343Z,98415.50
2022-08-20T20:10:32.773Z,98428.38
2022-08-20T20:15:41.789Z,98425.50
2022-08-20T20:20:57.850Z,98429.09
2022-08-20T20:26:07.724Z,98429.19
2022-08-20T20:31:17.210Z,98438.56
2022-08-20T20:36:35.441Z,98432.31
2022-08-20T20:41:40.459Z,98437.66
2022-08-20T20:46:49.877Z,98442.09
2022-08-20T20:51:59.703Z,98437.69
2022-08-20T20:57:08.144Z,98451.56
2022-08-20T21:02:15.508Z,98445.28
2022-08-20T21:07:25.455Z,98446.75
2022-08-20T21:12:30.212Z,98448.91
2022-08-20T21:17:38.709Z,98453.56
2022-08-20T21:22:45.611Z,98460.13
2022-08-20T21:27:51.984Z,98454.09
2022-08-20T21:32:59.755Z,98472.78
2022-08-20T21:38:04.494Z,98469.03
2022-08-20T21:43:10.246Z,98480.59
2022-08-20T21:48:17.703Z,98484.41
2022-08-20T21:53:22.393Z,98495.31
2022-08-20T21:58:26.971Z,98492.56
2022-08-20T22:03:38.598Z,98480.22
2022-08-20T22:08:44.096Z,98477.25
2022-08-20T22:13:49.124Z,98481.25
2022-08-20T22:18:58.643Z,98468.84
2022-08-20T22:24:05.785Z,98469.69
2022-08-20T22:29:12.761Z,98468.66
2022-08-20T22:34:22.596Z,98465.50
2022-08-20T22:39:32.838Z,98465.53
2022-08-20T22:44:43.515Z,98471.59
2022-08-20T22:49:56.492Z,98479.34
2022-08-20T22:55:01.194Z,98489.44
2022-08-20T23:00:17.837Z,98487.75
2022-08-20T23:05:27.594Z,98485.44
2022-08-20T23:10:40.818Z,98494.00
2022-08-20T23:15:45.927Z,98498.81
2022-08-20T23:20:58.765Z,98495.22
2022-08-20T23:26:07.162Z,98501.31
2022-08-20T23:31:11.855Z,98497.50
2022-08-20T23:36:23.707Z,98502.13
2022-08-20T23:41:28.744Z,98505.25
2022-08-20T23:46:36.395Z,98481.38
2022-08-20T23:51:44.204Z,98498.13
2022-08-20T23:56:49.467Z,98501.91
